createdAt,value
2018-02-09T00:01:23.375Z,39.83
2018-02-09T00:04:25.346Z,39.95
2018-02-09T00:07:27.246Z,39.79
2018-02-09T00:10:29.155Z,39.84
2018-02-09T00:13:31.139Z,39.89
2018-02-09T00:16:33.035Z,39.92
2018-02-09T00:19:34.926Z,39.79
2018-02-09T00:22:36.823Z,39.90
2018-02-09T00:25:38.724Z,39.79
2018-02-09T00:28:40.727Z,39.88
2018-02-09T00:31:42.634Z,39.81
2018-02-09T00:34:44.611Z,39.67
2018-02-09T00:37:46.515Z,39.95
2018-02-09T00:40:48.411Z,39.70
2018-02-09T00:43:50.407Z,39.82
2018-02-09T00:46:52.403Z,39.86
2018-02-09T00:49:54.402Z,39.94
2018-02-09T00:52:56.395Z,39.85
2018-02-09T00:55:58.292Z,39.87
2018-02-09T00:59:00.287Z,39.78
2018-02-09T01:02:02.184Z,39.80
2018-02-09T01:05:04.187Z,39.89
2018-02-09T01:08:06.195Z,39.90
2018-02-09T01:11:08.179Z,39.94
2018-02-09T01:14:10.184Z,39.88
2018-02-09T01:17:12.171Z,39.90
2018-02-09T01:20:14.171Z,39.81
2018-02-09T01:23:16.090Z,39.91
2018-02-09T01:26:18.071Z,39.90
2018-02-09T01:29:19.964Z,39.80
2018-02-09T01:32:21.859Z,39.95
2018-02-09T01:35:23.754Z,39.83
2018-02-09T01:38:25.644Z,39.83
2018-02-09T01:41:27.542Z,39.97
2018-02-09T01:44:29.436Z,39.99
2018-02-09T01:47:31.340Z,39.94
2018-02-09T01:50:33.327Z,39.89
2018-02-09T01:53:35.224Z,39.90
2018-02-09T01:56:37.119Z,39.96
2018-02-09T01:59:39.023Z,39.96
2018-02-09T02:02:41.010Z,39.83
2018-02-09T02:05:43.018Z,39.84
2018-02-09T02:08:44.924Z,39.76
2018-02-09T02:11:46.804Z,39.91
2018-02-09T02:14:48.702Z,39.86
2018-02-09T02:17:50.699Z,39.90
2018-02-09T02:20:52.711Z,39.77
2018-02-09T02:23:54.690Z,39.86
2018-02-09T02:26:56.690Z,39.91
2018-02-09T02:29:58.701Z,40.01
2018-02-09T02:33:00.690Z,39.93
2018-02-09T02:36:02.619Z,39.82
2018-02-09T02:39:04.574Z,40.05
2018-02-09T02:42:06.467Z,39.92
2018-02-09T02:45:08.366Z,40.02
2018-02-09T02:48:10.259Z,39.99
2018-02-09T02:51:12.174Z,39.79
2018-02-09T02:54:14.369Z,39.98
2018-02-09T02:57:16.359Z,39.93
2018-02-09T03:00:18.365Z,39.95
2018-02-09T03:03:20.246Z,40.02
2018-02-09T03:06:22.147Z,39.96
2018-02-09T03:09:24.058Z,40.19
2018-02-09T03:12:26.048Z,40.10
2018-02-09T03:15:28.039Z,39.97
2018-02-09T03:18:29.926Z,40.02
2018-02-09T03:21:31.847Z,40.04
2018-02-09T03:24:33.836Z,40.05
2018-02-09T03:27:35.731Z,40.07
2018-02-09T03:30:37.734Z,39.94
2018-02-09T03:33:39.626Z,39.96
2018-02-09T03:36:41.619Z,39.94
2018-02-09T03:39:43.619Z,39.90
2018-02-09T03:42:45.528Z,40.00
2018-02-09T03:45:47.510Z,40.16
2018-02-09T03:48:49.515Z,40.12
2018-02-09T03:51:51.515Z,40.10
2018-02-09T03:54:53.503Z,39.98
2018-02-09T03:57:55.399Z,40.06
2018-02-09T04:00:57.398Z,39.95
2018-02-09T04:03:59.507Z,40.09
2018-02-09T04:07:01.503Z,40.06
2018-02-09T04:10:03.495Z,39.99
2018-02-09T04:13:05.387Z,39.90
2018-02-09T04:16:07.289Z,39.90
2018-02-09T04:19:09.187Z,40.03
2018-02-09T04:22:11.175Z,40.09
2018-02-09T04:25:13.086Z,40.00
2018-02-09T04:28:15.084Z,40.19
2018-02-09T04:31:17.071Z,40.04
2018-02-09T04:34:19.071Z,40.04
2018-02-09T04:37:21.030Z,40.17
2018-02-09T04:40:22.975Z,40.02
2018-02-09T04:43:24.971Z,40.04
2018-02-09T04:46:26.962Z,40.09
2018-02-09T04:49:28.960Z,40.00
2018-02-09T04:52:30.950Z,40.01
2018-02-09T04:55:32.855Z,40.01
2018-02-09T04:58:34.750Z,40.20
2018-02-09T05:01:36.647Z,40.22
2018-02-09T05:04:38.639Z,40.28
2018-02-09T05:07:40.631Z,40.18
2018-02-09T05:10:42.540Z,40.09
2018-02-09T05:13:44.435Z,40.35
2018-02-09T05:16:46.663Z,40.22
2018-02-09T05:19:48.634Z,40.24
2018-02-09T05:22:50.546Z,40.07
2018-02-09T05:25:52.438Z,40.14
2018-02-09T05:28:54.495Z,40.04
2018-02-09T05:31:56.455Z,40.04
2018-02-09T05:34:58.439Z,40.01
2018-02-09T05:38:00.443Z,39.91
2018-02-09T05:41:02.346Z,39.91
2018-02-09T05:44:04.335Z,39.88
2018-02-09T05:47:06.314Z,39.91
2018-02-09T05:50:08.223Z,39.68
2018-02-09T05:53:10.220Z,39.88
2018-02-09T05:56:12.128Z,39.89
2018-02-09T05:59:14.020Z,39.79
2018-02-09T06:02:15.927Z,39.72
2018-02-09T06:05:17.906Z,39.60
2018-02-09T06:08:20.069Z,39.88
2018-02-09T06:11:21.926Z,39.85
2018-02-09T06:14:23.851Z,39.88
2018-02-09T06:17:25.735Z,39.77
2018-02-09T06:20:27.642Z,39.74
2018-02-09T06:23:29.770Z,39.75
2018-02-09T06:26:31.743Z,39.81
2018-02-09T06:29:33.618Z,39.78
2018-02-09T06:32:35.494Z,39.84
2018-02-09T06:35:37.387Z,39.79
2018-02-09T06:38:39.280Z,39.85
2018-02-09T06:41:41.149Z,39.66
2018-02-09T06:44:43.031Z,39.81
2018-02-09T06:47:44.923Z,39.72
2018-02-09T06:50:46.807Z,39.74
2018-02-09T06:53:48.694Z,39.73
2018-02-09T06:56:50.564Z,39.77
2018-02-09T06:59:52.635Z,39.64
2018-02-09T07:02:54.514Z,39.72
2018-02-09T07:05:56.406Z,39.70
2018-02-09T07:08:58.282Z,39.66
2018-02-09T07:12:00.176Z,39.56
2018-02-09T07:15:02.064Z,39.71
2018-02-09T07:18:03.946Z,39.67
2018-02-09T07:21:05.851Z,39.71
2018-02-09T07:24:07.748Z,39.70
2018-02-09T07:27:09.642Z,39.62
2018-02-09T07:30:11.631Z,39.59
2018-02-09T07:33:13.519Z,39.58
2018-02-09T07:36:15.407Z,39.58
2018-02-09T07:39:17.294Z,39.60
2018-02-09T07:42:19.195Z,39.65
2018-02-09T07:45:22.006Z,39.59
2018-02-09T07:48:23.887Z,39.55
2018-02-09T07:51:25.799Z,39.57
2018-02-09T07:54:27.675Z,39.61
2018-02-09T07:57:29.554Z,39.67
2018-02-09T08:00:31.444Z,39.57
2018-02-09T08:03:33.339Z,39.59
2018-02-09T08:06:35.234Z,39.53
2018-02-09T08:09:37.110Z,39.54
2018-02-09T08:12:38.999Z,39.39
2018-02-09T08:15:40.883Z,39.46
2018-02-09T08:18:42.770Z,39.33
2018-02-09T08:21:44.655Z,39.24
2018-02-09T08:24:46.555Z,39.22
2018-02-09T08:27:48.435Z,39.18
2018-02-09T08:30:50.331Z,39.28
2018-02-09T08:33:52.219Z,39.21
2018-02-09T08:36:54.113Z,39.44
2018-02-09T08:39:55.987Z,39.42
2018-02-09T08:42:58.092Z,39.32
2018-02-09T08:45:59.984Z,39.29
2018-02-09T08:49:01.874Z,39.38
2018-02-09T08:52:03.775Z,39.29
2018-02-09T08:55:05.660Z,39.29
2018-02-09T08:58:07.568Z,39.27
2018-02-09T09:01:09.460Z,39.30
2018-02-09T09:04:11.379Z,39.15
2018-02-09T09:07:13.263Z,39.24
2018-02-09T09:10:15.151Z,39.17
2018-02-09T09:13:17.044Z,39.23
2018-02-09T09:16:18.934Z,39.38
2018-02-09T09:19:20.815Z,39.36
2018-02-09T09:22:22.690Z,39.22
2018-02-09T09:25:24.570Z,39.33
2018-02-09T09:28:26.474Z,39.39
2018-02-09T09:31:28.373Z,39.44
2018-02-09T09:34:30.259Z,39.31
2018-02-09T09:37:32.128Z,39.43
2018-02-09T09:40:34.052Z,39.42
2018-02-09T09:43:35.935Z,39.41
2018-02-09T09:46:37.811Z,39.36
2018-02-09T09:49:39.690Z,39.18
2018-02-09T09:52:42.463Z,39.49
2018-02-09T09:55:44.393Z,39.50
2018-02-09T09:58:46.240Z,39.62
2018-02-09T10:01:48.111Z,39.53
2018-02-09T10:04:50.015Z,39.59
2018-02-09T10:07:51.895Z,39.59
2018-02-09T10:10:53.789Z,39.65
2018-02-09T10:13:55.679Z,39.62
2018-02-09T10:16:57.563Z,39.69
2018-02-09T10:19:59.451Z,39.66
2018-02-09T10:23:01.335Z,39.65
2018-02-09T10:26:03.216Z,39.70
2018-02-09T10:29:05.119Z,39.61
2018-02-09T10:32:06.991Z,39.66
2018-02-09T10:35:08.907Z,39.63
2018-02-09T10:38:10.792Z,39.67
2018-02-09T10:41:12.695Z,39.75
2018-02-09T10:44:14.595Z,39.67
2018-02-09T10:47:16.488Z,39.68
2018-02-09T10:50:18.387Z,39.71
2018-02-09T10:53:20.282Z,39.68
2018-02-09T10:56:22.163Z,39.67
2018-02-09T10:59:24.055Z,39.66
2018-02-09T11:02:25.937Z,39.72
2018-02-09T11:05:27.821Z,39.74
2018-02-09T11:08:29.711Z,39.74
2018-02-09T11:11:31.622Z,39.58
2018-02-09T11:14:33.514Z,39.63
2018-02-09T11:17:35.398Z,39.69
2018-02-09T11:20:37.281Z,39.58
2018-02-09T11:23:39.162Z,39.70
2018-02-09T11:26:41.051Z,39.64
2018-02-09T11:29:42.948Z,39.67
2018-02-09T11:32:44.819Z,39.60
2018-02-09T11:35:46.710Z,39.63
2018-02-09T11:38:48.587Z,39.57
2018-02-09T11:41:50.466Z,39.63
2018-02-09T11:44:52.352Z,39.62
2018-02-09T11:47:54.247Z,39.60
2018-02-09T11:50:56.123Z,39.61
2018-02-09T11:53:57.994Z,39.57
2018-02-09T11:56:59.885Z,39.53
2018-02-09T12:00:01.776Z,39.60
2018-02-09T12:03:03.663Z,39.62
2018-02-09T12:06:05.579Z,39.64
2018-02-09T12:09:07.463Z,39.56
2018-02-09T12:12:09.363Z,39.57
2018-02-09T12:15:11.648Z,39.68
2018-02-09T12:18:13.514Z,39.62
2018-02-09T12:21:15.391Z,39.61
2018-02-09T12:24:17.356Z,39.60
2018-02-09T12:27:19.227Z,39.66
2018-02-09T12:30:21.151Z,39.54
2018-02-09T12:33:23.031Z,39.53
2018-02-09T12:36:24.924Z,39.63
2018-02-09T12:39:26.802Z,39.56
2018-02-09T12:42:28.693Z,39.66
2018-02-09T12:45:30.579Z,39.65
2018-02-09T12:48:32.460Z,39.63
2018-02-09T12:51:34.407Z,39.55
2018-02-09T12:54:36.377Z,39.72
2018-02-09T12:57:38.260Z,39.78
2018-02-09T13:00:40.232Z,39.83
2018-02-09T13:03:42.056Z,39.86
2018-02-09T13:06:43.955Z,39.94
2018-02-09T13:09:45.845Z,39.93
2018-02-09T13:12:47.732Z,39.99
2018-02-09T13:15:49.623Z,40.00
2018-02-09T13:18:51.675Z,39.92
2018-02-09T13:21:53.595Z,39.89
2018-02-09T13:24:55.472Z,39.67
2018-02-09T13:27:57.386Z,39.67
2018-02-09T13:30:59.282Z,39.58
2018-02-09T13:34:01.159Z,39.56
2018-02-09T13:37:03.053Z,39.51
2018-02-09T13:40:04.969Z,39.61
2018-02-09T13:43:06.846Z,39.49
2018-02-09T13:46:08.733Z,39.64
2018-02-09T13:49:10.606Z,39.74
2018-02-09T13:52:12.496Z,39.83
2018-02-09T13:55:14.375Z,40.00
2018-02-09T13:58:16.276Z,39.94
2018-02-09T14:01:18.151Z,39.97
2018-02-09T14:04:20.071Z,40.11
2018-02-09T14:07:21.955Z,40.18
2018-02-09T14:10:23.842Z,40.14
2018-02-09T14:13:25.767Z,40.10
2018-02-09T14:16:27.648Z,40.20
2018-02-09T14:19:29.541Z,39.93
2018-02-09T14:22:31.437Z,39.97
2018-02-09T14:25:33.307Z,40.06
2018-02-09T14:28:35.202Z,39.96
2018-02-09T14:31:37.067Z,39.92
2018-02-09T14:34:38.976Z,40.02
2018-02-09T14:37:40.889Z,40.14
2018-02-09T14:40:42.744Z,40.18
2018-02-09T14:43:44.627Z,40.15
2018-02-09T14:46:46.516Z,40.20
2018-02-09T14:49:48.411Z,40.14
2018-02-09T14:52:50.302Z,40.14
2018-02-09T14:55:52.198Z,40.34
2018-02-09T14:58:54.067Z,40.27
2018-02-09T15:01:55.947Z,40.16
2018-02-09T15:04:57.839Z,40.20
2018-02-09T15:07:59.734Z,40.28
2018-02-09T15:11:01.625Z,39.93
2018-02-09T15:14:03.567Z,40.17
2018-02-09T15:17:05.463Z,40.24
2018-02-09T15:20:07.346Z,40.29
2018-02-09T15:23:09.235Z,40.35
2018-02-09T15:26:11.118Z,40.27
2018-02-09T15:29:13.015Z,40.26
2018-02-09T15:32:14.902Z,40.36
2018-02-09T15:35:16.796Z,40.28
2018-02-09T15:38:18.683Z,40.30
2018-02-09T15:41:20.569Z,40.29
2018-02-09T15:44:22.459Z,40.30
2018-02-09T15:47:24.344Z,40.28
2018-02-09T15:50:26.223Z,40.34
2018-02-09T15:53:28.129Z,40.31
2018-02-09T15:56:30.115Z,40.37
2018-02-09T15:59:32.029Z,40.30
2018-02-09T16:02:33.910Z,40.30
2018-02-09T16:05:35.811Z,40.29
2018-02-09T16:08:37.702Z,39.69
2018-02-09T16:11:39.596Z,39.01
2018-02-09T16:14:41.475Z,39.05
2018-02-09T16:17:43.367Z,39.32
2018-02-09T16:20:45.279Z,39.56
2018-02-09T16:23:47.160Z,39.62
2018-02-09T16:26:49.069Z,39.74
2018-02-09T16:29:50.928Z,39.85
2018-02-09T16:32:52.822Z,39.93
2018-02-09T16:35:54.863Z,39.90
2018-02-09T16:38:57.138Z,39.94
2018-02-09T16:41:59.505Z,39.99
2018-02-09T16:45:01.833Z,40.05
2018-02-09T16:48:04.241Z,40.05
2018-02-09T16:51:06.492Z,40.01
2018-02-09T16:54:09.214Z,40.04
2018-02-09T16:57:11.089Z,39.96
2018-02-09T17:00:12.966Z,40.05
2018-02-09T17:03:14.842Z,39.96
2018-02-09T17:06:17.054Z,40.12
2018-02-09T17:09:18.932Z,40.17
2018-02-09T17:12:20.811Z,40.07
2018-02-09T17:15:22.709Z,40.12
2018-02-09T17:18:24.595Z,40.25
2018-02-09T17:21:26.511Z,40.29
2018-02-09T17:24:28.396Z,40.34
2018-02-09T17:27:30.290Z,40.21
2018-02-09T17:30:32.223Z,40.25
2018-02-09T17:33:34.132Z,40.13
2018-02-09T17:36:36.099Z,40.20
2018-02-09T17:39:37.975Z,40.04
2018-02-09T17:42:39.878Z,39.95
2018-02-09T17:45:41.759Z,40.10
2018-02-09T17:48:43.639Z,40.06
2018-02-09T17:51:45.531Z,40.06
2018-02-09T17:54:47.410Z,39.96
2018-02-09T17:57:49.615Z,39.95
2018-02-09T18:00:51.526Z,39.88
2018-02-09T18:03:53.402Z,39.81
2018-02-09T18:06:55.299Z,39.79
2018-02-09T18:09:57.180Z,40.03
2018-02-09T18:12:59.083Z,40.18
2018-02-09T18:16:00.962Z,40.25
2018-02-09T18:19:02.850Z,40.24
2018-02-09T18:22:04.739Z,40.24
2018-02-09T18:25:06.614Z,40.26
2018-02-09T18:28:08.511Z,40.19
2018-02-09T18:31:10.532Z,40.19
2018-02-09T18:34:12.528Z,40.24
2018-02-09T18:37:14.528Z,40.14
2018-02-09T18:40:16.427Z,40.08
2018-02-09T18:43:18.351Z,40.02
2018-02-09T18:46:21.787Z,40.18
2018-02-09T18:49:23.760Z,40.17
2018-02-09T18:52:25.672Z,40.23
2018-02-09T18:55:27.551Z,39.72
2018-02-09T18:58:29.455Z,39.49
2018-02-09T19:01:31.454Z,39.13
2018-02-09T19:04:33.337Z,39.06
2018-02-09T19:07:35.263Z,39.09
2018-02-09T19:10:37.160Z,39.12
2018-02-09T19:13:39.154Z,39.53
2018-02-09T19:16:41.176Z,39.67
2018-02-09T19:19:43.994Z,39.78
2018-02-09T19:22:45.971Z,39.92
2018-02-09T19:25:48.001Z,40.00
2018-02-09T19:28:49.962Z,39.99
2018-02-09T19:31:51.879Z,40.12
2018-02-09T19:34:53.866Z,40.02
2018-02-09T19:37:55.779Z,40.16
2018-02-09T19:40:57.655Z,40.09
2018-02-09T19:43:59.555Z,39.77
2018-02-09T19:47:01.456Z,40.01
2018-02-09T19:50:03.363Z,39.91
2018-02-09T19:53:05.258Z,40.07
2018-02-09T19:56:07.147Z,40.21
2018-02-09T19:59:09.055Z,40.28
2018-02-09T20:02:11.056Z,40.35
2018-02-09T20:05:13.303Z,40.34
2018-02-09T20:08:15.263Z,40.30
2018-02-09T20:11:17.262Z,40.25
2018-02-09T20:14:19.259Z,40.22
2018-02-09T20:17:21.484Z,40.27
2018-02-09T20:20:23.468Z,40.36
2018-02-09T20:23:25.467Z,40.20
2018-02-09T20:26:27.343Z,40.33
2018-02-09T20:29:29.259Z,40.28
2018-02-09T20:32:31.155Z,39.94
2018-02-09T20:35:33.151Z,40.10
2018-02-09T20:38:35.159Z,40.21
2018-02-09T20:41:37.051Z,40.25
2018-02-09T20:44:39.047Z,40.34
2018-02-09T20:47:40.931Z,40.47
2018-02-09T20:50:42.875Z,40.55
2018-02-09T20:53:44.867Z,40.67
2018-02-09T20:56:46.846Z,40.54
2018-02-09T20:59:48.739Z,40.53
2018-02-09T21:02:50.610Z,40.61
2018-02-09T21:05:52.497Z,40.67
2018-02-09T21:08:54.383Z,40.60
2018-02-09T21:11:56.262Z,40.61
2018-02-09T21:14:58.144Z,40.60
2018-02-09T21:18:00.029Z,40.61
2018-02-09T21:21:01.906Z,40.58
2018-02-09T21:24:03.812Z,40.56
2018-02-09T21:27:05.703Z,40.63
2018-02-09T21:30:07.595Z,40.56
2018-02-09T21:33:09.487Z,40.69
2018-02-09T21:36:11.363Z,40.73
2018-02-09T21:39:13.250Z,40.69
2018-02-09T21:42:15.131Z,40.67
2018-02-09T21:45:17.007Z,40.70
2018-02-09T21:48:18.887Z,40.67
2018-02-09T21:51:20.774Z,40.70
2018-02-09T21:54:22.655Z,40.73
2018-02-09T21:57:24.595Z,40.76
2018-02-09T22:00:26.476Z,40.74
2018-02-09T22:03:28.370Z,40.62
2018-02-09T22:06:30.259Z,40.69
2018-02-09T22:09:32.137Z,40.72
2018-02-09T22:12:34.014Z,40.70
2018-02-09T22:15:35.902Z,40.75
2018-02-09T22:18:37.839Z,40.71
2018-02-09T22:21:39.971Z,40.60
2018-02-09T22:24:42.488Z,40.77
2018-02-09T22:27:44.543Z,40.67
2018-02-09T22:30:46.426Z,40.75
2018-02-09T22:33:48.558Z,40.81
2018-02-09T22:36:50.554Z,40.68
2018-02-09T22:39:52.444Z,40.68
2018-02-09T22:42:54.557Z,40.74
2018-02-09T22:45:56.438Z,40.59
2018-02-09T22:48:58.339Z,40.68
2018-02-09T22:52:00.223Z,40.67
2018-02-09T22:55:02.106Z,40.71
2018-02-09T22:58:04.190Z,40.72
2018-02-09T23:01:06.079Z,40.65
2018-02-09T23:04:07.959Z,40.67
2018-02-09T23:07:09.855Z,40.68
2018-02-09T23:10:11.738Z,40.68
2018-02-09T23:13:13.627Z,40.56
2018-02-09T23:16:15.499Z,40.65
2018-02-09T23:19:17.406Z,40.64
2018-02-09T23:22:19.295Z,40.62
2018-02-09T23:25:21.163Z,40.60
2018-02-09T23:28:23.051Z,40.59
2018-02-09T23:31:24.931Z,40.56
2018-02-09T23:34:26.813Z,40.71
2018-02-09T23:37:28.698Z,40.71
2018-02-09T23:40:30.571Z,40.76
2018-02-09T23:43:32.451Z,40.67
2018-02-09T23:46:34.343Z,40.74
2018-02-09T23:49:36.232Z,40.74
2018-02-09T23:52:38.111Z,40.76
2018-02-09T23:55:40.011Z,40.70
2018-02-09T23:58:41.913Z,40.69
